sensor_id;sensor_type;location;lat;lon;timestamp;pressure;altitude;pressure_sealevel;temperature;humidity
70909;BME280;58554;52.006;5.926;2023-12-29T00:00:39;99842.38;;;9.50;75.77
70909;BME280;58554;52.006;5.926;2023-12-29T00:03:05;99832.66;;;9.50;75.70
70909;BME280;58554;52.006;5.926;2023-12-29T00:05:32;99847.53;;;9.51;75.72
70909;BME280;58554;52.006;5.926;2023-12-29T00:07:58;99835.16;;;9.52;75.57
70909;BME280;58554;52.006;5.926;2023-12-29T00:10:24;99840.34;;;9.53;75.69
70909;BME280;58554;52.006;5.926;2023-12-29T00:12:51;99838.56;;;9.54;75.50
70909;BME280;58554;52.006;5.926;2023-12-29T00:15:20;99835.06;;;9.53;75.60
70909;BME280;58554;52.006;5.926;2023-12-29T00:17:47;99840.25;;;9.55;75.46
70909;BME280;58554;52.006;5.926;2023-12-29T00:20:13;99828.75;;;9.56;75.39
70909;BME280;58554;52.006;5.926;2023-12-29T00:22:40;99833.91;;;9.58;75.75
70909;BME280;58554;52.006;5.926;2023-12-29T00:25:07;99840.03;;;9.58;75.67
70909;BME280;58554;52.006;5.926;2023-12-29T00:27:35;99844.38;;;9.59;75.30
70909;BME280;58554;52.006;5.926;2023-12-29T00:30:01;99838.13;;;9.60;75.48
70909;BME280;58554;52.006;5.926;2023-12-29T00:32:31;99827.56;;;9.60;75.93
70909;BME280;58554;52.006;5.926;2023-12-29T00:34:57;99826.22;;;9.55;76.24
70909;BME280;58554;52.006;5.926;2023-12-29T00:37:24;99816.91;;;9.49;76.55
70909;BME280;58554;52.006;5.926;2023-12-29T00:39:50;99804.88;;;9.45;76.75
70909;BME280;58554;52.006;5.926;2023-12-29T00:42:16;99816.59;;;9.41;76.75
70909;BME280;58554;52.006;5.926;2023-12-29T00:44:43;99815.13;;;9.37;77.03
70909;BME280;58554;52.006;5.926;2023-12-29T00:47:09;99811.72;;;9.35;77.25
70909;BME280;58554;52.006;5.926;2023-12-29T00:49:40;99817.22;;;9.31;77.08
70909;BME280;58554;52.006;5.926;2023-12-29T00:52:07;99823.34;;;9.32;77.09
70909;BME280;58554;52.006;5.926;2023-12-29T00:54:33;99820.72;;;9.32;77.37
70909;BME280;58554;52.006;5.926;2023-12-29T00:57:00;99814.69;;;9.30;77.23
70909;BME280;58554;52.006;5.926;2023-12-29T00:59:26;99813.72;;;9.31;77.12
70909;BME280;58554;52.006;5.926;2023-12-29T01:01:53;99803.16;;;9.31;77.16
70909;BME280;58554;52.006;5.926;2023-12-29T01:04:19;99802.16;;;9.33;77.16
70909;BME280;58554;52.006;5.926;2023-12-29T01:06:48;99793.25;;;9.35;77.17
70909;BME280;58554;52.006;5.926;2023-12-29T01:09:15;99800.25;;;9.36;77.21
70909;BME280;58554;52.006;5.926;2023-12-29T01:11:41;99790.53;;;9.36;77.16
70909;BME280;58554;52.006;5.926;2023-12-29T01:14:08;99801.00;;;9.38;76.99
70909;BME280;58554;52.006;5.926;2023-12-29T01:16:34;99784.19;;;9.39;77.07
70909;BME280;58554;52.006;5.926;2023-12-29T01:19:01;99790.31;;;9.39;76.95
70909;BME280;58554;52.006;5.926;2023-12-29T01:21:27;99788.41;;;9.41;76.88
70909;BME280;58554;52.006;5.926;2023-12-29T01:23:56;99776.19;;;9.40;76.99
70909;BME280;58554;52.006;5.926;2023-12-29T01:26:23;99775.34;;;9.40;77.10
70909;BME280;58554;52.006;5.926;2023-12-29T01:28:49;99790.22;;;9.41;77.24
70909;BME280;58554;52.006;5.926;2023-12-29T01:31:16;99784.19;;;9.39;77.29
70909;BME280;58554;52.006;5.926;2023-12-29T01:33:42;99784.19;;;9.39;77.30
70909;BME280;58554;52.006;5.926;2023-12-29T01:36:08;99778.19;;;9.37;77.25
70909;BME280;58554;52.006;5.926;2023-12-29T01:38:35;99790.44;;;9.38;77.36
70909;BME280;58554;52.006;5.926;2023-12-29T01:41:04;99785.25;;;9.36;77.54
70909;BME280;58554;52.006;5.926;2023-12-29T01:43:31;99795.06;;;9.34;77.43
70909;BME280;58554;52.006;5.926;2023-12-29T01:45:57;99789.78;;;9.34;77.80
70909;BME280;58554;52.006;5.926;2023-12-29T01:48:24;99781.03;;;9.33;77.74
70909;BME280;58554;52.006;5.926;2023-12-29T01:50:52;99780.31;;;9.31;77.69
70909;BME280;58554;52.006;5.926;2023-12-29T01:53:21;99780.41;;;9.30;77.78
70909;BME280;58554;52.006;5.926;2023-12-29T01:55:49;99783.03;;;9.30;77.99
70909;BME280;58554;52.006;5.926;2023-12-29T01:58:18;99763.72;;;9.29;77.99
70909;BME280;58554;52.006;5.926;2023-12-29T02:00:45;99777.75;;;9.30;78.10
70909;BME280;58554;52.006;5.926;2023-12-29T02:03:12;99784.72;;;9.31;78.26
70909;BME280;58554;52.006;5.926;2023-12-29T02:05:39;99786.41;;;9.32;77.89
70909;BME280;58554;52.006;5.926;2023-12-29T02:08:08;99779.56;;;9.29;77.99
70909;BME280;58554;52.006;5.926;2023-12-29T02:10:37;99775.13;;;9.30;77.89
70909;BME280;58554;52.006;5.926;2023-12-29T02:13:04;99788.31;;;9.30;78.00
70909;BME280;58554;52.006;5.926;2023-12-29T02:15:33;99783.88;;;9.30;78.24
70909;BME280;58554;52.006;5.926;2023-12-29T02:18:02;99793.50;;;9.31;78.27
70909;BME280;58554;52.006;5.926;2023-12-29T02:20:33;99792.63;;;9.31;78.17
70909;BME280;58554;52.006;5.926;2023-12-29T02:23:00;99787.34;;;9.31;78.28
70909;BME280;58554;52.006;5.926;2023-12-29T02:25:30;99792.63;;;9.31;78.38
70909;BME280;58554;52.006;5.926;2023-12-29T02:28:01;99777.66;;;9.31;78.47
70909;BME280;58554;52.006;5.926;2023-12-29T02:30:40;99780.31;;;9.31;78.71
70909;BME280;58554;52.006;5.926;2023-12-29T02:33:16;99783.03;;;9.30;78.84
70909;BME280;58554;52.006;5.926;2023-12-29T02:35:46;99775.28;;;9.27;78.88
70909;BME280;58554;52.006;5.926;2023-12-29T02:38:17;99774.53;;;9.25;79.10
70909;BME280;58554;52.006;5.926;2023-12-29T02:40:47;99771.28;;;9.21;79.06
70909;BME280;58554;52.006;5.926;2023-12-29T02:43:13;99773.28;;;9.18;79.11
70909;BME280;58554;52.006;5.926;2023-12-29T02:45:40;99775.16;;;9.16;79.42
70909;BME280;58554;52.006;5.926;2023-12-29T02:48:07;99782.34;;;9.13;79.69
70909;BME280;58554;52.006;5.926;2023-12-29T02:50:33;99785.06;;;9.12;79.54
70909;BME280;58554;52.006;5.926;2023-12-29T02:53:00;99780.75;;;9.11;79.70
70909;BME280;58554;52.006;5.926;2023-12-29T02:55:26;99779.06;;;9.10;79.68
70909;BME280;58554;52.006;5.926;2023-12-29T02:57:55;99757.97;;;9.10;79.75
70909;BME280;58554;52.006;5.926;2023-12-29T03:00:21;99759.66;;;9.11;79.73
70909;BME280;58554;52.006;5.926;2023-12-29T03:02:48;99766.63;;;9.12;80.00
70909;BME280;58554;52.006;5.926;2023-12-29T03:05:15;99764.94;;;9.11;79.94
70909;BME280;58554;52.006;5.926;2023-12-29T03:07:41;99770.31;;;9.09;80.26
70909;BME280;58554;52.006;5.926;2023-12-29T03:10:08;99763.47;;;9.07;80.03
70909;BME280;58554;52.006;5.926;2023-12-29T03:12:35;99772.28;;;9.06;80.08
70909;BME280;58554;52.006;5.926;2023-12-29T03:15:05;99775.06;;;9.04;80.16
70909;BME280;58554;52.006;5.926;2023-12-29T03:17:32;99769.03;;;9.02;80.37
70909;BME280;58554;52.006;5.926;2023-12-29T03:19:58;99760.25;;;9.02;80.49
70909;BME280;58554;52.006;5.926;2023-12-29T03:22:25;99760.38;;;9.00;80.57
70909;BME280;58554;52.006;5.926;2023-12-29T03:24:52;99761.41;;;8.98;80.51
70909;BME280;58554;52.006;5.926;2023-12-29T03:27:18;99771.03;;;8.99;80.67
70909;BME280;58554;52.006;5.926;2023-12-29T03:29:45;99763.13;;;8.99;80.90
70909;BME280;58554;52.006;5.926;2023-12-29T03:32:14;99760.47;;;8.99;80.95
70909;BME280;58554;52.006;5.926;2023-12-29T03:34:40;99762.38;;;8.97;80.64
70909;BME280;58554;52.006;5.926;2023-12-29T03:37:07;99754.47;;;8.97;80.85
70909;BME280;58554;52.006;5.926;2023-12-29T03:39:33;99764.06;;;8.98;80.78
70909;BME280;58554;52.006;5.926;2023-12-29T03:42:00;99769.31;;;8.98;80.84
70909;BME280;58554;52.006;5.926;2023-12-29T03:44:26;99781.56;;;8.99;80.89
70909;BME280;58554;52.006;5.926;2023-12-29T03:46:53;99785.06;;;8.99;80.77
70909;BME280;58554;52.006;5.926;2023-12-29T03:49:22;99772.84;;;8.98;80.83
70909;BME280;58554;52.006;5.926;2023-12-29T03:51:48;99762.28;;;8.98;80.81
70909;BME280;58554;52.006;5.926;2023-12-29T03:54:15;99771.03;;;8.99;80.70
70909;BME280;58554;52.006;5.926;2023-12-29T03:56:41;99761.41;;;8.98;80.84
70909;BME280;58554;52.006;5.926;2023-12-29T03:59:08;99765.75;;;8.99;80.78
70909;BME280;58554;52.006;5.926;2023-12-29T04:01:34;99763.13;;;8.99;80.99
70909;BME280;58554;52.006;5.926;2023-12-29T04:04:00;99769.13;;;9.01;80.96
70909;BME280;58554;52.006;5.926;2023-12-29T04:06:29;99765.53;;;9.02;80.72
70909;BME280;58554;52.006;5.926;2023-12-29T04:08:57;99758.59;;;9.01;80.79
70909;BME280;58554;52.006;5.926;2023-12-29T04:11:24;99771.69;;;9.02;80.71
70909;BME280;58554;52.006;5.926;2023-12-29T04:13:50;99759.34;;;9.03;80.61
70909;BME280;58554;52.006;5.926;2023-12-29T04:16:17;99766.41;;;9.02;80.49
70909;BME280;58554;52.006;5.926;2023-12-29T04:18:43;99754.06;;;9.03;80.38
70909;BME280;58554;52.006;5.926;2023-12-29T04:21:13;99749.53;;;9.05;80.20
70909;BME280;58554;52.006;5.926;2023-12-29T04:23:42;99762.72;;;9.05;80.14
70909;BME280;58554;52.006;5.926;2023-12-29T04:26:09;99769.56;;;9.07;80.13
70909;BME280;58554;52.006;5.926;2023-12-29T04:28:36;99752.81;;;9.08;79.96
70909;BME280;58554;52.006;5.926;2023-12-29T04:31:03;99751.94;;;9.08;80.00
70909;BME280;58554;52.006;5.926;2023-12-29T04:33:29;99749.13;;;9.11;79.79
70909;BME280;58554;52.006;5.926;2023-12-29T04:35:56;99751.75;;;9.11;79.77
70909;BME280;58554;52.006;5.926;2023-12-29T04:38:22;99773.69;;;9.11;79.61
70909;BME280;58554;52.006;5.926;2023-12-29T04:40:51;99771.88;;;9.12;79.55
70909;BME280;58554;52.006;5.926;2023-12-29T04:43:18;99772.75;;;9.12;79.61
70909;BME280;58554;52.006;5.926;2023-12-29T04:45:44;99772.84;;;9.11;79.56
70909;BME280;58554;52.006;5.926;2023-12-29T04:48:10;99759.75;;;9.09;79.50
70909;BME280;58554;52.006;5.926;2023-12-29T04:50:37;99761.47;;;9.10;79.39
70909;BME280;58554;52.006;5.926;2023-12-29T04:53:03;99758.81;;;9.10;79.41
70909;BME280;58554;52.006;5.926;2023-12-29T04:55:30;99760.50;;;9.11;79.31
70909;BME280;58554;52.006;5.926;2023-12-29T04:57:59;99762.31;;;9.11;79.34
70909;BME280;58554;52.006;5.926;2023-12-29T05:00:25;99754.28;;;9.12;79.01
70909;BME280;58554;52.006;5.926;2023-12-29T05:02:52;99760.31;;;9.15;79.10
70909;BME280;58554;52.006;5.926;2023-12-29T05:05:18;99776.00;;;9.16;79.03
70909;BME280;58554;52.006;5.926;2023-12-29T05:07:45;99778.66;;;9.16;78.75
70909;BME280;58554;52.006;5.926;2023-12-29T05:10:11;99765.47;;;9.16;78.82
70909;BME280;58554;52.006;5.926;2023-12-29T05:12:38;99777.59;;;9.19;78.58
70909;BME280;58554;52.006;5.926;2023-12-29T05:15:08;99769.81;;;9.17;78.49
70909;BME280;58554;52.006;5.926;2023-12-29T05:17:35;99761.75;;;9.19;78.44
70909;BME280;58554;52.006;5.926;2023-12-29T05:20:01;99759.13;;;9.19;78.40
70909;BME280;58554;52.006;5.926;2023-12-29T05:22:28;99756.47;;;9.19;78.42
70909;BME280;58554;52.006;5.926;2023-12-29T05:24:54;99760.94;;;9.18;78.20
70909;BME280;58554;52.006;5.926;2023-12-29T05:27:21;99753.00;;;9.18;78.13
70909;BME280;58554;52.006;5.926;2023-12-29T05:29:47;99759.25;;;9.17;78.22
70909;BME280;58554;52.006;5.926;2023-12-29T05:32:16;99771.59;;;9.17;78.32
70909;BME280;58554;52.006;5.926;2023-12-29T05:34:43;99760.19;;;9.16;78.08
70909;BME280;58554;52.006;5.926;2023-12-29T05:37:10;99775.16;;;9.16;78.35
70909;BME280;58554;52.006;5.926;2023-12-29T05:39:36;99771.69;;;9.15;78.05
70909;BME280;58554;52.006;5.926;2023-12-29T05:42:03;99761.16;;;9.15;78.22
70909;BME280;58554;52.006;5.926;2023-12-29T05:44:30;99782.25;;;9.15;78.19
70909;BME280;58554;52.006;5.926;2023-12-29T05:46:56;99779.59;;;9.15;77.93
70909;BME280;58554;52.006;5.926;2023-12-29T05:49:27;99779.59;;;9.15;78.05
70909;BME280;58554;52.006;5.926;2023-12-29T05:51:53;99774.44;;;9.13;77.92
70909;BME280;58554;52.006;5.926;2023-12-29T05:54:20;99779.69;;;9.13;77.80
70909;BME280;58554;52.006;5.926;2023-12-29T05:56:46;99786.78;;;9.13;78.01
70909;BME280;58554;52.006;5.926;2023-12-29T05:59:13;99798.25;;;9.12;77.75
70909;BME280;58554;52.006;5.926;2023-12-29T06:01:40;99777.28;;;9.10;78.01
70909;BME280;58554;52.006;5.926;2023-12-29T06:04:06;99788.66;;;9.11;77.89
70909;BME280;58554;52.006;5.926;2023-12-29T06:06:35;99773.91;;;9.08;78.04
70909;BME280;58554;52.006;5.926;2023-12-29T06:09:02;99772.94;;;9.09;77.84
70909;BME280;58554;52.006;5.926;2023-12-29T06:11:29;99775.81;;;9.06;78.00
70909;BME280;58554;52.006;5.926;2023-12-29T06:13:55;99783.81;;;9.05;78.11
70909;BME280;58554;52.006;5.926;2023-12-29T06:16:22;99782.00;;;9.05;78.03
70909;BME280;58554;52.006;5.926;2023-12-29T06:18:49;99779.47;;;9.04;77.93
70909;BME280;58554;52.006;5.926;2023-12-29T06:21:15;99781.16;;;9.05;77.88
70909;BME280;58554;52.006;5.926;2023-12-29T06:23:44;99783.91;;;9.03;78.14
70909;BME280;58554;52.006;5.926;2023-12-29T06:26:15;99775.25;;;9.01;77.97
70909;BME280;58554;52.006;5.926;2023-12-29T06:28:42;99784.13;;;9.00;78.09
70909;BME280;58554;52.006;5.926;2023-12-29T06:31:08;99771.88;;;8.99;78.28
70909;BME280;58554;52.006;5.926;2023-12-29T06:33:35;99767.44;;;9.00;78.13
70909;BME280;58554;52.006;5.926;2023-12-29T06:36:02;99781.56;;;8.99;78.20
70909;BME280;58554;52.006;5.926;2023-12-29T06:38:29;99781.56;;;8.99;78.38
70909;BME280;58554;52.006;5.926;2023-12-29T06:40:58;99782.50;;;8.98;78.21
70909;BME280;58554;52.006;5.926;2023-12-29T06:43:25;99776.31;;;8.99;78.28
70909;BME280;58554;52.006;5.926;2023-12-29T06:45:52;99773.56;;;9.00;78.40
70909;BME280;58554;52.006;5.926;2023-12-29T06:48:18;99781.56;;;8.99;78.39
70909;BME280;58554;52.006;5.926;2023-12-29T06:50:45;99777.97;;;9.00;78.34
70909;BME280;58554;52.006;5.926;2023-12-29T06:53:12;99789.59;;;8.97;78.26
70909;BME280;58554;52.006;5.926;2023-12-29T06:55:39;99774.59;;;8.98;78.56
70909;BME280;58554;52.006;5.926;2023-12-29T06:58:08;99777.22;;;8.98;78.56
70909;BME280;58554;52.006;5.926;2023-12-29T07:00:34;99785.16;;;8.98;78.65
70909;BME280;58554;52.006;5.926;2023-12-29T07:03:01;99790.31;;;8.99;78.60
70909;BME280;58554;52.006;5.926;2023-12-29T07:05:28;99807.84;;;9.00;78.72
70909;BME280;58554;52.006;5.926;2023-12-29T07:07:55;99779.69;;;9.01;78.94
70909;BME280;58554;52.006;5.926;2023-12-29T07:10:22;99778.09;;;8.98;78.84
70909;BME280;58554;52.006;5.926;2023-12-29T07:12:48;99772.09;;;8.96;79.10
70909;BME280;58554;52.006;5.926;2023-12-29T07:15:18;99767.00;;;8.93;79.24
70909;BME280;58554;52.006;5.926;2023-12-29T07:17:44;99775.22;;;8.88;79.51
70909;BME280;58554;52.006;5.926;2023-12-29T07:20:11;99771.09;;;8.84;79.77
70909;BME280;58554;52.006;5.926;2023-12-29T07:22:38;99774.03;;;8.80;79.81
70909;BME280;58554;52.006;5.926;2023-12-29T07:25:05;99771.59;;;8.77;80.02
70909;BME280;58554;52.006;5.926;2023-12-29T07:27:32;99778.97;;;8.71;80.40
70909;BME280;58554;52.006;5.926;2023-12-29T07:29:59;99773.88;;;8.68;80.30
70909;BME280;58554;52.006;5.926;2023-12-29T07:32:28;99774.84;;;8.67;80.79
70909;BME280;58554;52.006;5.926;2023-12-29T07:34:55;99781.91;;;8.67;80.80
70909;BME280;58554;52.006;5.926;2023-12-29T07:37:21;99775.78;;;8.66;80.92
70909;BME280;58554;52.006;5.926;2023-12-29T07:39:48;99778.53;;;8.65;81.05
70909;BME280;58554;52.006;5.926;2023-12-29T07:42:15;99772.41;;;8.64;81.12
70909;BME280;58554;52.006;5.926;2023-12-29T07:44:41;99774.28;;;8.62;81.24
70909;BME280;58554;52.006;5.926;2023-12-29T07:47:08;99776.09;;;8.62;81.37
70909;BME280;58554;52.006;5.926;2023-12-29T07:49:37;99777.03;;;8.61;81.57
70909;BME280;58554;52.006;5.926;2023-12-29T07:52:04;99782.41;;;8.59;81.77
70909;BME280;58554;52.006;5.926;2023-12-29T07:54:31;99780.69;;;8.58;81.81
70909;BME280;58554;52.006;5.926;2023-12-29T07:56:57;99779.03;;;8.57;82.06
70909;BME280;58554;52.006;5.926;2023-12-29T07:59:24;99777.44;;;8.55;82.03
70909;BME280;58554;52.006;5.926;2023-12-29T08:01:50;99788.81;;;8.55;82.35
70909;BME280;58554;52.006;5.926;2023-12-29T08:04:17;99787.97;;;8.55;82.34
70909;BME280;58554;52.006;5.926;2023-12-29T08:06:46;99787.97;;;8.55;82.33
70909;BME280;58554;52.006;5.926;2023-12-29T08:09:12;99775.66;;;8.55;82.62
70909;BME280;58554;52.006;5.926;2023-12-29T08:11:39;99799.28;;;8.57;82.64
70909;BME280;58554;52.006;5.926;2023-12-29T08:14:05;99789.66;;;8.56;82.76
70909;BME280;58554;52.006;5.926;2023-12-29T08:16:32;99786.19;;;8.55;82.68
70909;BME280;58554;52.006;5.926;2023-12-29T08:18:58;99777.44;;;8.55;82.78
70909;BME280;58554;52.006;5.926;2023-12-29T08:21:25;99803.78;;;8.55;83.04
70909;BME280;58554;52.006;5.926;2023-12-29T08:23:54;99800.19;;;8.56;82.97
70909;BME280;58554;52.006;5.926;2023-12-29T08:26:20;99792.38;;;8.54;83.20
70909;BME280;58554;52.006;5.926;2023-12-29T08:28:47;99780.16;;;8.53;83.21
70909;BME280;58554;52.006;5.926;2023-12-29T08:31:14;99766.03;;;8.54;83.35
70909;BME280;58554;52.006;5.926;2023-12-29T08:33:41;99772.16;;;8.55;83.53
70909;BME280;58554;52.006;5.926;2023-12-29T08:36:08;99775.66;;;8.55;83.49
70909;BME280;58554;52.006;5.926;2023-12-29T08:38:35;99791.38;;;8.57;83.77
70909;BME280;58554;52.006;5.926;2023-12-29T08:41:04;99801.91;;;8.57;83.72
70909;BME280;58554;52.006;5.926;2023-12-29T08:43:31;99806.22;;;8.58;83.83
70909;BME280;58554;52.006;5.926;2023-12-29T08:45:57;99811.47;;;8.58;83.76
70909;BME280;58554;52.006;5.926;2023-12-29T08:48:24;99805.28;;;8.59;83.92
70909;BME280;58554;52.006;5.926;2023-12-29T08:50:50;99790.31;;;8.59;83.98
70909;BME280;58554;52.006;5.926;2023-12-29T08:53:18;99791.91;;;8.62;83.94
70909;BME280;58554;52.006;5.926;2023-12-29T08:55:45;99770.81;;;8.62;84.05
70909;BME280;58554;52.006;5.926;2023-12-29T08:58:14;99776.00;;;8.63;84.14
70909;BME280;58554;52.006;5.926;2023-12-29T09:00:41;99768.91;;;8.64;84.23
70909;BME280;58554;52.006;5.926;2023-12-29T09:03:07;99765.22;;;8.66;83.92
70909;BME280;58554;52.006;5.926;2023-12-29T09:05:34;99784.34;;;8.70;83.95
70909;BME280;58554;52.006;5.926;2023-12-29T09:08:00;99774.44;;;8.73;84.19
70909;BME280;58554;52.006;5.926;2023-12-29T09:10:27;99775.19;;;8.76;84.02
70909;BME280;58554;52.006;5.926;2023-12-29T09:12:53;99779.41;;;8.78;84.04
70909;BME280;58554;52.006;5.926;2023-12-29T09:15:22;99783.84;;;8.78;83.84
70909;BME280;58554;52.006;5.926;2023-12-29T09:17:49;99796.94;;;8.79;83.85
70909;BME280;58554;52.006;5.926;2023-12-29T09:20:16;99796.94;;;8.79;83.89
70909;BME280;58554;52.006;5.926;2023-12-29T09:22:43;99789.78;;;8.81;84.00
70909;BME280;58554;52.006;5.926;2023-12-29T09:25:09;99794.81;;;8.84;83.87
70909;BME280;58554;52.006;5.926;2023-12-29T09:27:36;99798.13;;;8.88;83.84
70909;BME280;58554;52.006;5.926;2023-12-29T09:30:03;99797.81;;;8.92;83.95
70909;BME280;58554;52.006;5.926;2023-12-29T09:32:33;99786.94;;;8.97;83.68
70909;BME280;58554;52.006;5.926;2023-12-29T09:34:59;99799.72;;;9.03;83.58
70909;BME280;58554;52.006;5.926;2023-12-29T09:37:26;99799.63;;;9.05;83.43
70909;BME280;58554;52.006;5.926;2023-12-29T09:39:52;99793.31;;;9.07;83.33
70909;BME280;58554;52.006;5.926;2023-12-29T09:42:21;99800.06;;;9.11;83.38
70909;BME280;58554;52.006;5.926;2023-12-29T09:44:50;99809.88;;;9.09;83.39
70909;BME280;58554;52.006;5.926;2023-12-29T09:47:21;99805.44;;;9.10;83.19
70909;BME280;58554;52.006;5.926;2023-12-29T09:49:52;99817.69;;;9.11;83.45
70909;BME280;58554;52.006;5.926;2023-12-29T09:52:21;99814.00;;;9.13;83.11
70909;BME280;58554;52.006;5.926;2023-12-29T09:54:48;99820.84;;;9.16;83.17
70909;BME280;58554;52.006;5.926;2023-12-29T09:57:17;99826.88;;;9.18;83.19
70909;BME280;58554;52.006;5.926;2023-12-29T09:59:44;99815.16;;;9.22;82.96
70909;BME280;58554;52.006;5.926;2023-12-29T10:02:13;99813.50;;;9.21;82.96
70909;BME280;58554;52.006;5.926;2023-12-29T10:04:41;99816.88;;;9.23;82.85
70909;BME280;58554;52.006;5.926;2023-12-29T10:07:14;99830.81;;;9.25;82.80
70909;BME280;58554;52.006;5.926;2023-12-29T10:09:47;99824.66;;;9.25;82.67
70909;BME280;58554;52.006;5.926;2023-12-29T10:12:19;99818.34;;;9.27;82.79
70909;BME280;58554;52.006;5.926;2023-12-29T10:14:50;99820.88;;;9.29;82.64
70909;BME280;58554;52.006;5.926;2023-12-29T10:17:30;99807.50;;;9.32;82.57
70909;BME280;58554;52.006;5.926;2023-12-29T10:20:14;99820.38;;;9.37;82.70
70909;BME280;58554;52.006;5.926;2023-12-29T10:23:05;99818.50;;;9.39;82.59
70909;BME280;58554;52.006;5.926;2023-12-29T10:25:36;99825.34;;;9.41;82.54
70909;BME280;58554;52.006;5.926;2023-12-29T10:28:03;99834.97;;;9.42;82.50
70909;BME280;58554;52.006;5.926;2023-12-29T10:30:30;99827.06;;;9.42;82.30
70909;BME280;58554;52.006;5.926;2023-12-29T10:32:57;99826.84;;;9.45;82.41
70909;BME280;58554;52.006;5.926;2023-12-29T10:35:23;99829.19;;;9.50;82.39
70909;BME280;58554;52.006;5.926;2023-12-29T10:37:50;99826.41;;;9.51;82.31
70909;BME280;58554;52.006;5.926;2023-12-29T10:40:19;99823.69;;;9.53;82.40
70909;BME280;58554;52.006;5.926;2023-12-29T10:42:56;99827.91;;;9.56;82.24
70909;BME280;58554;52.006;5.926;2023-12-29T10:45:22;99819.06;;;9.57;82.03
70909;BME280;58554;52.006;5.926;2023-12-29T10:47:49;99830.22;;;9.60;82.26
70909;BME280;58554;52.006;5.926;2023-12-29T10:50:16;99830.03;;;9.63;82.03
70909;BME280;58554;52.006;5.926;2023-12-29T10:52:42;99826.41;;;9.64;82.12
70909;BME280;58554;52.006;5.926;2023-12-29T10:55:10;99836.78;;;9.67;82.19
70909;BME280;58554;52.006;5.926;2023-12-29T10:57:40;99833.00;;;9.71;81.84
70909;BME280;58554;52.006;5.926;2023-12-29T11:00:08;99831.94;;;9.74;81.78
70909;BME280;58554;52.006;5.926;2023-12-29T11:02:35;99825.47;;;9.78;81.80
70909;BME280;58554;52.006;5.926;2023-12-29T11:05:03;99835.09;;;9.79;81.52
70909;BME280;58554;52.006;5.926;2023-12-29T11:07:35;99830.44;;;9.83;81.56
70909;BME280;58554;52.006;5.926;2023-12-29T11:10:05;99833.72;;;9.86;81.60
70909;BME280;58554;52.006;5.926;2023-12-29T11:12:34;99835.53;;;9.86;81.51
70909;BME280;58554;52.006;5.926;2023-12-29T11:15:06;99837.00;;;9.90;81.44
70909;BME280;58554;52.006;5.926;2023-12-29T11:17:34;99843.53;;;9.97;81.44
70909;BME280;58554;52.006;5.926;2023-12-29T11:20:03;99823.69;;;10.04;81.21
70909;BME280;58554;52.006;5.926;2023-12-29T11:22:31;99836.56;;;10.09;81.02
70909;BME280;58554;52.006;5.926;2023-12-29T11:24:58;99835.28;;;10.14;80.79
70909;BME280;58554;52.006;5.926;2023-12-29T11:27:27;99842.16;;;10.17;80.44
70909;BME280;58554;52.006;5.926;2023-12-29T11:29:55;99846.56;;;10.17;80.40
70909;BME280;58554;52.006;5.926;2023-12-29T11:32:30;99847.53;;;10.16;80.35
70909;BME280;58554;52.006;5.926;2023-12-29T11:35:11;99832.84;;;10.11;80.27
70909;BME280;58554;52.006;5.926;2023-12-29T11:38:07;99847.84;;;10.11;80.28
70909;BME280;58554;52.006;5.926;2023-12-29T11:40:49;99833.16;;;10.20;80.17
70909;BME280;58554;52.006;5.926;2023-12-29T11:43:23;99830.41;;;10.21;79.72
70909;BME280;58554;52.006;5.926;2023-12-29T11:45:50;99833.66;;;10.25;79.56
70909;BME280;58554;52.006;5.926;2023-12-29T11:48:55;99835.25;;;10.27;79.40
70909;BME280;58554;52.006;5.926;2023-12-29T11:51:29;99828.28;;;10.26;79.26
70909;BME280;58554;52.006;5.926;2023-12-29T11:53:57;99844.97;;;10.27;79.13
70909;BME280;58554;52.006;5.926;2023-12-29T11:56:23;99835.47;;;10.24;79.09
70909;BME280;58554;52.006;5.926;2023-12-29T11:58:50;99836.44;;;10.23;79.17
70909;BME280;58554;52.006;5.926;2023-12-29T12:01:34;99843.28;;;10.26;79.17
70909;BME280;58554;52.006;5.926;2023-12-29T12:04:04;99839.47;;;10.30;79.22
70909;BME280;58554;52.006;5.926;2023-12-29T12:06:36;99826.25;;;10.30;78.84
70909;BME280;58554;52.006;5.926;2023-12-29T12:09:15;99832.47;;;10.29;78.92
70909;BME280;58554;52.006;5.926;2023-12-29T12:11:42;99844.84;;;10.28;78.75
70909;BME280;58554;52.006;5.926;2023-12-29T12:14:09;99839.56;;;10.28;78.70
70909;BME280;58554;52.006;5.926;2023-12-29T12:16:56;99827.19;;;10.29;78.64
70909;BME280;58554;52.006;5.926;2023-12-29T12:19:25;99837.66;;;10.30;78.84
70909;BME280;58554;52.006;5.926;2023-12-29T12:21:53;99834.94;;;10.32;78.47
70909;BME280;58554;52.006;5.926;2023-12-29T12:24:20;99827.94;;;10.31;78.59
70909;BME280;58554;52.006;5.926;2023-12-29T12:26:47;99828.66;;;10.33;78.36
70909;BME280;58554;52.006;5.926;2023-12-29T12:29:14;99825.09;;;10.34;78.36
70909;BME280;58554;52.006;5.926;2023-12-29T12:31:52;99824.13;;;10.35;78.40
70909;BME280;58554;52.006;5.926;2023-12-29T12:34:19;99825.72;;;10.38;78.25
70909;BME280;58554;52.006;5.926;2023-12-29T12:36:51;99817.78;;;10.38;78.10
70909;BME280;58554;52.006;5.926;2023-12-29T12:39:18;99824.75;;;10.39;78.33
70909;BME280;58554;52.006;5.926;2023-12-29T12:41:45;99827.28;;;10.40;78.20
70909;BME280;58554;52.006;5.926;2023-12-29T12:44:13;99816.72;;;10.40;77.95
70909;BME280;58554;52.006;5.926;2023-12-29T12:46:44;99823.69;;;10.41;78.15
70909;BME280;58554;52.006;5.926;2023-12-29T12:49:16;99819.88;;;10.45;78.28
70909;BME280;58554;52.006;5.926;2023-12-29T12:51:44;99821.47;;;10.48;78.13
70909;BME280;58554;52.006;5.926;2023-12-29T12:54:17;99795.97;;;10.47;77.89
70909;BME280;58554;52.006;5.926;2023-12-29T12:56:46;99793.56;;;10.44;77.87
70909;BME280;58554;52.006;5.926;2023-12-29T12:59:13;99796.41;;;10.41;78.01
70909;BME280;58554;52.006;5.926;2023-12-29T13:01:41;99807.22;;;10.38;77.85
70909;BME280;58554;52.006;5.926;2023-12-29T13:04:09;99803.13;;;10.33;78.14
70909;BME280;58554;52.006;5.926;2023-12-29T13:06:40;99804.88;;;10.33;78.28
70909;BME280;58554;52.006;5.926;2023-12-29T13:09:08;99809.34;;;10.32;77.94
70909;BME280;58554;52.006;5.926;2023-12-29T13:11:38;99808.41;;;10.33;78.21
70909;BME280;58554;52.006;5.926;2023-12-29T13:14:05;99810.59;;;10.40;78.06